sensor_id;sensor_type;location;lat;lon;timestamp;P1;durP1;ratioP1;P2;durP2;ratioP2
63280;SDS011;49406;51.044;3.766;2022-07-05T00:01:01;17.00;;;4.20;;
63280;SDS011;49406;51.044;3.766;2022-07-05T00:03:35;12.60;;;4.10;;
63280;SDS011;49406;51.044;3.766;2022-07-05T00:06:10;12.30;;;3.90;;
63280;SDS011;49406;51.044;3.766;2022-07-05T00:08:44;15.00;;;4.20;;
63280;SDS011;49406;51.044;3.766;2022-07-05T00:11:19;12.00;;;4.50;;
63280;SDS011;49406;51.044;3.766;2022-07-05T00:13:53;15.20;;;4.30;;
63280;SDS011;49406;51.044;3.766;2022-07-05T00:16:27;15.80;;;4.40;;
63280;SDS011;49406;51.044;3.766;2022-07-05T00:19:02;17.90;;;4.60;;
63280;SDS011;49406;51.044;3.766;2022-07-05T00:21:36;14.70;;;4.50;;
63280;SDS011;49406;51.044;3.766;2022-07-05T00:24:10;15.00;;;4.60;;
63280;SDS011;49406;51.044;3.766;2022-07-05T00:26:45;17.00;;;4.50;;
63280;SDS011;49406;51.044;3.766;2022-07-05T00:29:19;16.70;;;4.60;;
63280;SDS011;49406;51.044;3.766;2022-07-05T00:31:53;17.80;;;5.50;;
63280;SDS011;49406;51.044;3.766;2022-07-05T00:34:28;15.80;;;4.70;;
63280;SDS011;49406;51.044;3.766;2022-07-05T00:37:02;14.20;;;5.10;;
63280;SDS011;49406;51.044;3.766;2022-07-05T00:39:37;15.50;;;5.10;;
63280;SDS011;49406;51.044;3.766;2022-07-05T00:42:11;20.70;;;5.90;;
63280;SDS011;49406;51.044;3.766;2022-07-05T00:44:46;18.50;;;5.60;;
63280;SDS011;49406;51.044;3.766;2022-07-05T00:47:20;20.30;;;5.60;;
63280;SDS011;49406;51.044;3.766;2022-07-05T00:49:55;15.10;;;5.00;;
63280;SDS011;49406;51.044;3.766;2022-07-05T00:52:29;13.90;;;5.50;;
63280;SDS011;49406;51.044;3.766;2022-07-05T00:55:04;15.80;;;5.10;;
63280;SDS011;49406;51.044;3.766;2022-07-05T00:57:40;16.70;;;4.90;;
63280;SDS011;49406;51.044;3.766;2022-07-05T01:00:15;15.00;;;5.20;;
63280;SDS011;49406;51.044;3.766;2022-07-05T01:02:49;20.70;;;6.90;;
63280;SDS011;49406;51.044;3.766;2022-07-05T01:05:24;18.40;;;6.10;;
63280;SDS011;49406;51.044;3.766;2022-07-05T01:07:59;16.20;;;5.70;;
63280;SDS011;49406;51.044;3.766;2022-07-05T01:10:34;19.10;;;5.40;;
63280;SDS011;49406;51.044;3.766;2022-07-05T01:13:09;18.70;;;5.80;;
63280;SDS011;49406;51.044;3.766;2022-07-05T01:15:44;19.50;;;6.20;;
63280;SDS011;49406;51.044;3.766;2022-07-05T01:18:19;16.50;;;6.00;;
63280;SDS011;49406;51.044;3.766;2022-07-05T01:20:54;18.60;;;5.30;;
63280;SDS011;49406;51.044;3.766;2022-07-05T01:23:29;20.20;;;6.20;;
63280;SDS011;49406;51.044;3.766;2022-07-05T01:26:05;14.70;;;6.10;;
63280;SDS011;49406;51.044;3.766;2022-07-05T01:28:40;19.80;;;6.10;;
63280;SDS011;49406;51.044;3.766;2022-07-05T01:31:15;16.60;;;5.90;;
63280;SDS011;49406;51.044;3.766;2022-07-05T01:33:49;17.10;;;5.80;;
63280;SDS011;49406;51.044;3.766;2022-07-05T01:36:24;23.30;;;7.10;;
63280;SDS011;49406;51.044;3.766;2022-07-05T01:38:58;22.50;;;7.30;;
63280;SDS011;49406;51.044;3.766;2022-07-05T01:41:33;14.90;;;5.90;;
63280;SDS011;49406;51.044;3.766;2022-07-05T01:44:08;19.90;;;7.20;;
63280;SDS011;49406;51.044;3.766;2022-07-05T01:46:43;19.20;;;7.20;;
63280;SDS011;49406;51.044;3.766;2022-07-05T01:49:19;16.80;;;7.30;;
63280;SDS011;49406;51.044;3.766;2022-07-05T01:51:57;21.60;;;7.70;;
63280;SDS011;49406;51.044;3.766;2022-07-05T01:54:34;16.00;;;6.90;;
63280;SDS011;49406;51.044;3.766;2022-07-05T01:57:08;24.00;;;7.50;;
63280;SDS011;49406;51.044;3.766;2022-07-05T01:59:43;19.20;;;8.00;;
63280;SDS011;49406;51.044;3.766;2022-07-05T02:02:17;20.50;;;7.90;;
63280;SDS011;49406;51.044;3.766;2022-07-05T02:04:52;24.60;;;8.50;;
63280;SDS011;49406;51.044;3.766;2022-07-05T02:07:26;22.00;;;8.50;;
63280;SDS011;49406;51.044;3.766;2022-07-05T02:10:00;20.90;;;8.50;;
63280;SDS011;49406;51.044;3.766;2022-07-05T02:12:35;19.50;;;7.30;;
63280;SDS011;49406;51.044;3.766;2022-07-05T02:15:10;23.00;;;7.60;;
63280;SDS011;49406;51.044;3.766;2022-07-05T02:17:44;17.20;;;7.90;;
63280;SDS011;49406;51.044;3.766;2022-07-05T02:20:18;19.30;;;8.80;;
63280;SDS011;49406;51.044;3.766;2022-07-05T02:22:53;18.90;;;7.60;;
63280;SDS011;49406;51.044;3.766;2022-07-05T02:25:28;17.40;;;7.60;;
63280;SDS011;49406;51.044;3.766;2022-07-05T02:28:02;17.10;;;7.60;;
63280;SDS011;49406;51.044;3.766;2022-07-05T02:30:37;17.90;;;7.90;;
63280;SDS011;49406;51.044;3.766;2022-07-05T02:33:11;19.00;;;7.70;;
63280;SDS011;49406;51.044;3.766;2022-07-05T02:35:46;18.20;;;7.00;;
63280;SDS011;49406;51.044;3.766;2022-07-05T02:38:20;23.00;;;7.60;;
63280;SDS011;49406;51.044;3.766;2022-07-05T02:40:55;21.60;;;7.90;;
63280;SDS011;49406;51.044;3.766;2022-07-05T02:43:29;17.80;;;7.70;;
63280;SDS011;49406;51.044;3.766;2022-07-05T02:46:04;20.70;;;7.60;;
63280;SDS011;49406;51.044;3.766;2022-07-05T02:48:40;18.90;;;7.30;;
63280;SDS011;49406;51.044;3.766;2022-07-05T02:51:14;17.40;;;7.30;;
63280;SDS011;49406;51.044;3.766;2022-07-05T02:53:49;18.40;;;7.50;;
63280;SDS011;49406;51.044;3.766;2022-07-05T02:56:23;20.20;;;7.80;;
63280;SDS011;49406;51.044;3.766;2022-07-05T02:58:57;17.90;;;7.20;;
63280;SDS011;49406;51.044;3.766;2022-07-05T03:01:32;20.50;;;7.10;;
63280;SDS011;49406;51.044;3.766;2022-07-05T03:04:06;20.00;;;7.20;;
63280;SDS011;49406;51.044;3.766;2022-07-05T03:06:41;21.10;;;8.40;;
63280;SDS011;49406;51.044;3.766;2022-07-05T03:09:15;18.80;;;7.40;;
63280;SDS011;49406;51.044;3.766;2022-07-05T03:11:50;20.50;;;6.90;;
63280;SDS011;49406;51.044;3.766;2022-07-05T03:14:24;22.80;;;7.90;;
63280;SDS011;49406;51.044;3.766;2022-07-05T03:16:58;19.60;;;7.00;;
63280;SDS011;49406;51.044;3.766;2022-07-05T03:19:33;16.60;;;6.80;;
63280;SDS011;49406;51.044;3.766;2022-07-05T03:22:07;19.10;;;6.90;;
63280;SDS011;49406;51.044;3.766;2022-07-05T03:24:42;22.20;;;7.60;;
63280;SDS011;49406;51.044;3.766;2022-07-05T03:27:16;18.30;;;7.70;;
63280;SDS011;49406;51.044;3.766;2022-07-05T03:29:50;22.20;;;7.90;;
63280;SDS011;49406;51.044;3.766;2022-07-05T03:32:25;20.10;;;7.50;;
63280;SDS011;49406;51.044;3.766;2022-07-05T03:34:59;23.90;;;8.20;;
63280;SDS011;49406;51.044;3.766;2022-07-05T03:37:33;26.10;;;9.00;;
63280;SDS011;49406;51.044;3.766;2022-07-05T03:40:09;21.10;;;7.70;;
63280;SDS011;49406;51.044;3.766;2022-07-05T03:42:43;26.60;;;7.80;;
63280;SDS011;49406;51.044;3.766;2022-07-05T03:45:18;19.70;;;7.70;;
63280;SDS011;49406;51.044;3.766;2022-07-05T03:47:52;26.40;;;8.30;;
63280;SDS011;49406;51.044;3.766;2022-07-05T03:50:29;19.00;;;8.20;;
63280;SDS011;49406;51.044;3.766;2022-07-05T03:53:03;21.70;;;7.70;;
63280;SDS011;49406;51.044;3.766;2022-07-05T03:55:38;21.10;;;8.00;;
63280;SDS011;49406;51.044;3.766;2022-07-05T03:58:12;21.40;;;8.30;;
63280;SDS011;49406;51.044;3.766;2022-07-05T04:00:46;18.90;;;8.80;;
63280;SDS011;49406;51.044;3.766;2022-07-05T04:03:21;24.80;;;8.80;;
63280;SDS011;49406;51.044;3.766;2022-07-05T04:05:55;20.20;;;8.60;;
63280;SDS011;49406;51.044;3.766;2022-07-05T04:08:29;28.00;;;9.60;;
63280;SDS011;49406;51.044;3.766;2022-07-05T04:11:04;25.20;;;9.20;;
63280;SDS011;49406;51.044;3.766;2022-07-05T04:13:39;22.30;;;8.30;;
63280;SDS011;49406;51.044;3.766;2022-07-05T04:16:13;26.00;;;9.10;;
63280;SDS011;49406;51.044;3.766;2022-07-05T04:18:48;26.80;;;9.50;;
63280;SDS011;49406;51.044;3.766;2022-07-05T04:21:22;19.80;;;8.70;;
63280;SDS011;49406;51.044;3.766;2022-07-05T04:23:56;29.00;;;9.50;;
63280;SDS011;49406;51.044;3.766;2022-07-05T04:26:31;31.70;;;9.80;;
63280;SDS011;49406;51.044;3.766;2022-07-05T04:29:05;24.80;;;10.20;;
63280;SDS011;49406;51.044;3.766;2022-07-05T04:31:40;29.60;;;10.80;;
63280;SDS011;49406;51.044;3.766;2022-07-05T04:34:14;26.50;;;10.40;;
63280;SDS011;49406;51.044;3.766;2022-07-05T04:36:48;25.80;;;9.50;;
63280;SDS011;49406;51.044;3.766;2022-07-05T04:39:23;30.10;;;10.60;;
63280;SDS011;49406;51.044;3.766;2022-07-05T04:41:57;30.40;;;10.60;;
63280;SDS011;49406;51.044;3.766;2022-07-05T04:44:32;29.00;;;10.00;;
63280;SDS011;49406;51.044;3.766;2022-07-05T04:47:06;28.10;;;10.00;;
63280;SDS011;49406;51.044;3.766;2022-07-05T04:49:40;28.00;;;9.70;;
63280;SDS011;49406;51.044;3.766;2022-07-05T04:52:15;32.30;;;10.30;;
63280;SDS011;49406;51.044;3.766;2022-07-05T04:54:49;27.20;;;10.30;;
63280;SDS011;49406;51.044;3.766;2022-07-05T04:57:23;28.30;;;10.60;;
63280;SDS011;49406;51.044;3.766;2022-07-05T04:59:58;31.80;;;10.30;;
63280;SDS011;49406;51.044;3.766;2022-07-05T05:02:32;31.80;;;10.50;;
63280;SDS011;49406;51.044;3.766;2022-07-05T05:05:07;36.10;;;11.30;;
63280;SDS011;49406;51.044;3.766;2022-07-05T05:07:42;35.40;;;10.70;;
63280;SDS011;49406;51.044;3.766;2022-07-05T05:10:17;35.30;;;12.30;;
63280;SDS011;49406;51.044;3.766;2022-07-05T05:12:52;33.50;;;11.40;;
63280;SDS011;49406;51.044;3.766;2022-07-05T05:15:26;35.10;;;10.60;;
63280;SDS011;49406;51.044;3.766;2022-07-05T05:18:00;36.10;;;11.30;;
63280;SDS011;49406;51.044;3.766;2022-07-05T05:20:35;30.10;;;11.60;;
63280;SDS011;49406;51.044;3.766;2022-07-05T05:23:09;30.20;;;11.50;;
63280;SDS011;49406;51.044;3.766;2022-07-05T05:25:44;36.70;;;12.10;;
63280;SDS011;49406;51.044;3.766;2022-07-05T05:28:18;41.70;;;11.90;;
63280;SDS011;49406;51.044;3.766;2022-07-05T05:30:52;34.20;;;11.50;;
63280;SDS011;49406;51.044;3.766;2022-07-05T05:33:27;36.40;;;12.40;;
63280;SDS011;49406;51.044;3.766;2022-07-05T05:36:01;41.80;;;12.40;;
63280;SDS011;49406;51.044;3.766;2022-07-05T05:38:36;32.90;;;11.80;;
63280;SDS011;49406;51.044;3.766;2022-07-05T05:41:10;35.10;;;13.00;;
63280;SDS011;49406;51.044;3.766;2022-07-05T05:43:45;45.80;;;13.60;;
63280;SDS011;49406;51.044;3.766;2022-07-05T05:46:19;45.30;;;13.50;;
63280;SDS011;49406;51.044;3.766;2022-07-05T05:48:53;39.00;;;13.50;;
63280;SDS011;49406;51.044;3.766;2022-07-05T05:51:28;46.70;;;13.00;;
63280;SDS011;49406;51.044;3.766;2022-07-05T05:54:02;43.90;;;13.10;;
63280;SDS011;49406;51.044;3.766;2022-07-05T05:56:37;45.60;;;13.40;;
63280;SDS011;49406;51.044;3.766;2022-07-05T05:59:11;41.00;;;13.90;;
63280;SDS011;49406;51.044;3.766;2022-07-05T06:01:46;39.80;;;13.30;;
63280;SDS011;49406;51.044;3.766;2022-07-05T06:04:20;39.90;;;13.70;;
63280;SDS011;49406;51.044;3.766;2022-07-05T06:06:55;43.20;;;14.20;;
63280;SDS011;49406;51.044;3.766;2022-07-05T06:09:29;40.90;;;14.10;;
63280;SDS011;49406;51.044;3.766;2022-07-05T06:12:04;37.50;;;12.60;;
63280;SDS011;49406;51.044;3.766;2022-07-05T06:14:39;40.10;;;13.40;;
63280;SDS011;49406;51.044;3.766;2022-07-05T06:17:13;48.80;;;13.30;;
63280;SDS011;49406;51.044;3.766;2022-07-05T06:19:47;45.20;;;13.30;;
63280;SDS011;49406;51.044;3.766;2022-07-05T06:22:22;45.90;;;13.20;;
63280;SDS011;49406;51.044;3.766;2022-07-05T06:24:56;42.30;;;12.90;;
63280;SDS011;49406;51.044;3.766;2022-07-05T06:27:30;39.00;;;11.90;;
63280;SDS011;49406;51.044;3.766;2022-07-05T06:30:10;37.10;;;11.70;;
63280;SDS011;49406;51.044;3.766;2022-07-05T06:32:46;46.00;;;12.50;;
63280;SDS011;49406;51.044;3.766;2022-07-05T06:35:21;43.30;;;13.00;;
63280;SDS011;49406;51.044;3.766;2022-07-05T06:37:57;45.40;;;12.90;;
63280;SDS011;49406;51.044;3.766;2022-07-05T06:40:33;43.70;;;13.70;;
63280;SDS011;49406;51.044;3.766;2022-07-05T06:43:10;44.60;;;13.60;;
63280;SDS011;49406;51.044;3.766;2022-07-05T06:45:45;36.30;;;12.90;;
63280;SDS011;49406;51.044;3.766;2022-07-05T06:48:20;44.90;;;13.90;;
63280;SDS011;49406;51.044;3.766;2022-07-05T06:50:54;47.00;;;14.50;;
63280;SDS011;49406;51.044;3.766;2022-07-05T06:53:29;49.30;;;14.00;;
63280;SDS011;49406;51.044;3.766;2022-07-05T06:56:03;41.30;;;13.60;;
63280;SDS011;49406;51.044;3.766;2022-07-05T06:58:38;47.10;;;13.90;;
63280;SDS011;49406;51.044;3.766;2022-07-05T07:01:13;46.80;;;14.40;;
63280;SDS011;49406;51.044;3.766;2022-07-05T07:03:47;58.50;;;15.80;;
63280;SDS011;49406;51.044;3.766;2022-07-05T07:06:22;49.20;;;14.60;;
63280;SDS011;49406;51.044;3.766;2022-07-05T07:08:56;50.50;;;14.60;;
63280;SDS011;49406;51.044;3.766;2022-07-05T07:11:48;44.90;;;13.10;;
63280;SDS011;49406;51.044;3.766;2022-07-05T07:14:23;50.20;;;13.70;;
63280;SDS011;49406;51.044;3.766;2022-07-05T07:16:57;44.90;;;14.00;;
63280;SDS011;49406;51.044;3.766;2022-07-05T07:19:31;46.30;;;14.10;;
63280;SDS011;49406;51.044;3.766;2022-07-05T07:22:06;43.80;;;12.50;;
63280;SDS011;49406;51.044;3.766;2022-07-05T07:24:40;41.20;;;11.90;;
63280;SDS011;49406;51.044;3.766;2022-07-05T07:27:14;45.20;;;12.00;;
63280;SDS011;49406;51.044;3.766;2022-07-05T07:29:49;38.90;;;11.50;;
63280;SDS011;49406;51.044;3.766;2022-07-05T07:32:23;41.40;;;11.50;;
63280;SDS011;49406;51.044;3.766;2022-07-05T07:34:57;39.40;;;11.80;;
63280;SDS011;49406;51.044;3.766;2022-07-05T07:37:32;38.10;;;11.50;;
63280;SDS011;49406;51.044;3.766;2022-07-05T07:40:07;46.90;;;11.70;;
63280;SDS011;49406;51.044;3.766;2022-07-05T07:42:42;36.90;;;11.20;;
63280;SDS011;49406;51.044;3.766;2022-07-05T07:45:16;37.50;;;10.60;;
63280;SDS011;49406;51.044;3.766;2022-07-05T07:47:51;37.00;;;11.40;;
63280;SDS011;49406;51.044;3.766;2022-07-05T07:50:25;33.20;;;10.10;;
63280;SDS011;49406;51.044;3.766;2022-07-05T07:53:00;40.10;;;11.50;;
63280;SDS011;49406;51.044;3.766;2022-07-05T07:55:34;32.80;;;10.60;;
63280;SDS011;49406;51.044;3.766;2022-07-05T07:58:09;35.10;;;11.60;;
63280;SDS011;49406;51.044;3.766;2022-07-05T08:00:43;36.00;;;10.90;;
63280;SDS011;49406;51.044;3.766;2022-07-05T08:03:17;36.30;;;10.40;;
63280;SDS011;49406;51.044;3.766;2022-07-05T08:05:52;38.70;;;10.10;;
63280;SDS011;49406;51.044;3.766;2022-07-05T08:08:26;34.10;;;9.00;;
63280;SDS011;49406;51.044;3.766;2022-07-05T08:11:00;37.70;;;9.90;;
63280;SDS011;49406;51.044;3.766;2022-07-05T08:13:35;36.70;;;11.20;;
63280;SDS011;49406;51.044;3.766;2022-07-05T08:16:10;45.90;;;12.60;;
63280;SDS011;49406;51.044;3.766;2022-07-05T08:18:45;44.20;;;13.20;;
63280;SDS011;49406;51.044;3.766;2022-07-05T08:21:37;39.10;;;11.60;;
63280;SDS011;49406;51.044;3.766;2022-07-05T08:24:11;44.20;;;11.70;;
63280;SDS011;49406;51.044;3.766;2022-07-05T08:26:46;36.30;;;10.00;;
63280;SDS011;49406;51.044;3.766;2022-07-05T08:29:20;36.70;;;10.20;;
63280;SDS011;49406;51.044;3.766;2022-07-05T08:31:54;46.40;;;11.20;;
63280;SDS011;49406;51.044;3.766;2022-07-05T08:34:29;38.50;;;10.40;;
63280;SDS011;49406;51.044;3.766;2022-07-05T08:37:05;40.00;;;9.60;;
63280;SDS011;49406;51.044;3.766;2022-07-05T08:39:40;42.60;;;9.80;;
63280;SDS011;49406;51.044;3.766;2022-07-05T08:42:14;27.40;;;9.50;;
63280;SDS011;49406;51.044;3.766;2022-07-05T08:44:49;27.50;;;8.00;;
63280;SDS011;49406;51.044;3.766;2022-07-05T08:47:27;23.50;;;6.70;;
63280;SDS011;49406;51.044;3.766;2022-07-05T08:50:04;29.30;;;8.20;;
63280;SDS011;49406;51.044;3.766;2022-07-05T08:52:40;24.30;;;7.60;;
63280;SDS011;49406;51.044;3.766;2022-07-05T08:55:15;22.70;;;8.50;;
63280;SDS011;49406;51.044;3.766;2022-07-05T08:57:50;77.40;;;13.00;;
63280;SDS011;49406;51.044;3.766;2022-07-05T09:00:24;32.90;;;8.60;;
63280;SDS011;49406;51.044;3.766;2022-07-05T09:02:59;18.50;;;7.40;;
63280;SDS011;49406;51.044;3.766;2022-07-05T09:05:35;16.70;;;5.10;;
63280;SDS011;49406;51.044;3.766;2022-07-05T09:08:14;21.60;;;8.10;;
63280;SDS011;49406;51.044;3.766;2022-07-05T09:10:49;37.10;;;12.20;;
63280;SDS011;49406;51.044;3.766;2022-07-05T09:13:25;34.10;;;12.50;;
63280;SDS011;49406;51.044;3.766;2022-07-05T09:16:00;30.60;;;10.50;;
63280;SDS011;49406;51.044;3.766;2022-07-05T09:18:41;34.30;;;11.70;;
63280;SDS011;49406;51.044;3.766;2022-07-05T09:21:17;33.30;;;9.60;;
63280;SDS011;49406;51.044;3.766;2022-07-05T09:23:55;25.70;;;8.00;;
63280;SDS011;49406;51.044;3.766;2022-07-05T09:26:35;25.20;;;8.40;;
63280;SDS011;49406;51.044;3.766;2022-07-05T09:29:12;18.90;;;7.40;;
63280;SDS011;49406;51.044;3.766;2022-07-05T09:31:48;18.20;;;6.60;;
63280;SDS011;49406;51.044;3.766;2022-07-05T09:34:23;21.30;;;7.20;;
63280;SDS011;49406;51.044;3.766;2022-07-05T09:36:59;17.60;;;5.40;;
63280;SDS011;49406;51.044;3.766;2022-07-05T09:39:38;23.10;;;7.80;;
63280;SDS011;49406;51.044;3.766;2022-07-05T09:42:14;35.10;;;8.30;;
63280;SDS011;49406;51.044;3.766;2022-07-05T09:44:54;20.40;;;8.40;;
63280;SDS011;49406;51.044;3.766;2022-07-05T09:47:29;31.90;;;9.90;;
63280;SDS011;49406;51.044;3.766;2022-07-05T09:50:04;30.60;;;11.80;;
63280;SDS011;49406;51.044;3.766;2022-07-05T09:52:41;34.70;;;14.60;;
63280;SDS011;49406;51.044;3.766;2022-07-05T09:55:16;28.20;;;13.30;;
63280;SDS011;49406;51.044;3.766;2022-07-05T09:57:51;34.90;;;13.30;;
63280;SDS011;49406;51.044;3.766;2022-07-05T10:00:25;26.50;;;11.40;;
63280;SDS011;49406;51.044;3.766;2022-07-05T10:03:00;31.20;;;11.90;;
63280;SDS011;49406;51.044;3.766;2022-07-05T10:05:35;28.20;;;11.30;;
63280;SDS011;49406;51.044;3.766;2022-07-05T10:08:09;25.50;;;8.80;;
63280;SDS011;49406;51.044;3.766;2022-07-05T10:10:45;22.30;;;8.20;;
63280;SDS011;49406;51.044;3.766;2022-07-05T10:13:22;24.00;;;7.20;;
63280;SDS011;49406;51.044;3.766;2022-07-05T10:15:56;19.50;;;6.30;;
63280;SDS011;49406;51.044;3.766;2022-07-05T10:18:31;21.60;;;5.90;;
63280;SDS011;49406;51.044;3.766;2022-07-05T10:21:06;14.20;;;4.80;;
63280;SDS011;49406;51.044;3.766;2022-07-05T10:23:45;17.30;;;3.90;;
63280;SDS011;49406;51.044;3.766;2022-07-05T10:26:23;13.00;;;4.20;;
63280;SDS011;49406;51.044;3.766;2022-07-05T10:31:36;19.40;;;4.70;;
63280;SDS011;49406;51.044;3.766;2022-07-05T10:34:11;14.00;;;3.80;;
63280;SDS011;49406;51.044;3.766;2022-07-05T10:36:46;15.10;;;4.00;;
63280;SDS011;49406;51.044;3.766;2022-07-05T10:39:21;15.50;;;4.30;;
63280;SDS011;49406;51.044;3.766;2022-07-05T10:41:57;15.50;;;4.00;;
63280;SDS011;49406;51.044;3.766;2022-07-05T10:44:33;10.30;;;3.20;;
63280;SDS011;49406;51.044;3.766;2022-07-05T10:47:09;15.10;;;3.60;;
63280;SDS011;49406;51.044;3.766;2022-07-05T10:49:58;15.80;;;3.50;;
63280;SDS011;49406;51.044;3.766;2022-07-05T10:52:35;15.90;;;3.90;;
63280;SDS011;49406;51.044;3.766;2022-07-05T10:55:22;17.40;;;4.00;;
63280;SDS011;49406;51.044;3.766;2022-07-05T11:07:07;13.80;;;2.70;;
63280;SDS011;49406;51.044;3.766;2022-07-05T11:09:45;34.30;;;5.10;;
63280;SDS011;49406;51.044;3.766;2022-07-05T11:12:36;14.50;;;2.90;;
63280;SDS011;49406;51.044;3.766;2022-07-05T11:15:11;15.00;;;3.20;;
63280;SDS011;49406;51.044;3.766;2022-07-05T11:17:45;19.80;;;4.50;;
63280;SDS011;49406;51.044;3.766;2022-07-05T11:20:27;18.90;;;3.20;;
63280;SDS011;49406;51.044;3.766;2022-07-05T11:23:12;26.80;;;4.00;;
63280;SDS011;49406;51.044;3.766;2022-07-05T11:25:46;11.20;;;2.90;;
63280;SDS011;49406;51.044;3.766;2022-07-05T11:28:22;13.00;;;3.10;;
63280;SDS011;49406;51.044;3.766;2022-07-05T11:30:57;11.80;;;2.60;;
63280;SDS011;49406;51.044;3.766;2022-07-05T11:33:36;11.80;;;2.90;;
63280;SDS011;49406;51.044;3.766;2022-07-05T11:36:23;17.40;;;3.20;;
63280;SDS011;49406;51.044;3.766;2022-07-05T11:39:09;17.10;;;2.90;;
63280;SDS011;49406;51.044;3.766;2022-07-05T11:41:47;12.20;;;3.30;;
63280;SDS011;49406;51.044;3.766;2022-07-05T11:44:21;10.60;;;2.50;;
63280;SDS011;49406;51.044;3.766;2022-07-05T11:46:57;25.30;;;3.90;;
63280;SDS011;49406;51.044;3.766;2022-07-05T11:49:32;50.40;;;5.90;;
63280;SDS011;49406;51.044;3.766;2022-07-05T11:52:06;73.00;;;8.20;;
63280;SDS011;49406;51.044;3.766;2022-07-05T11:54:41;10.10;;;2.60;;
63280;SDS011;49406;51.044;3.766;2022-07-05T11:57:17;117.10;;;12.90;;
63280;SDS011;49406;51.044;3.766;2022-07-05T11:59:52;13.80;;;3.20;;
63280;SDS011;49406;51.044;3.766;2022-07-05T12:02:27;21.90;;;3.70;;
63280;SDS011;49406;51.044;3.766;2022-07-05T12:05:01;40.00;;;5.20;;
63280;SDS011;49406;51.044;3.766;2022-07-05T12:07:36;12.60;;;3.90;;
63280;SDS011;49406;51.044;3.766;2022-07-05T12:10:11;10.90;;;3.20;;
63280;SDS011;49406;51.044;3.766;2022-07-05T12:13:06;48.40;;;5.90;;
63280;SDS011;49406;51.044;3.766;2022-07-05T12:15:41;17.10;;;3.10;;
63280;SDS011;49406;51.044;3.766;2022-07-05T12:18:17;12.40;;;3.00;;
63280;SDS011;49406;51.044;3.766;2022-07-05T12:20:52;8.70;;;3.10;;
63280;SDS011;49406;51.044;3.766;2022-07-05T12:23:27;12.90;;;2.70;;
63280;SDS011;49406;51.044;3.766;2022-07-05T12:26:01;9.70;;;2.70;;
63280;SDS011;49406;51.044;3.766;2022-07-05T12:28:35;8.80;;;2.40;;
63280;SDS011;49406;51.044;3.766;2022-07-05T12:31:17;10.50;;;2.50;;
63280;SDS011;49406;51.044;3.766;2022-07-05T12:33:52;12.60;;;2.90;;
63280;SDS011;49406;51.044;3.766;2022-07-05T12:36:47;10.50;;;2.50;;
63280;SDS011;49406;51.044;3.766;2022-07-05T12:39:21;11.40;;;2.60;;
63280;SDS011;49406;51.044;3.766;2022-07-05T12:41:56;11.50;;;2.70;;
63280;SDS011;49406;51.044;3.766;2022-07-05T12:44:30;15.10;;;3.10;;
63280;SDS011;49406;51.044;3.766;2022-07-05T12:47:05;14.20;;;3.20;;
63280;SDS011;49406;51.044;3.766;2022-07-05T12:52:28;10.40;;;2.90;;
63280;SDS011;49406;51.044;3.766;2022-07-05T12:55:11;9.50;;;2.70;;
63280;SDS011;49406;51.044;3.766;2022-07-05T12:58:03;14.20;;;3.10;;
63280;SDS011;49406;51.044;3.766;2022-07-05T13:00:38;9.10;;;2.40;;
63280;SDS011;49406;51.044;3.766;2022-07-05T13:03:12;14.60;;;2.90;;
63280;SDS011;49406;51.044;3.766;2022-07-05T13:06:00;10.20;;;2.30;;
63280;SDS011;49406;51.044;3.766;2022-07-05T13:08:35;19.70;;;2.70;;
63280;SDS011;49406;51.044;3.766;2022-07-05T13:11:09;18.60;;;3.20;;
63280;SDS011;49406;51.044;3.766;2022-07-05T13:13:44;14.20;;;2.70;;
63280;SDS011;49406;51.044;3.766;2022-07-05T13:16:18;15.00;;;2.60;;
63280;SDS011;49406;51.044;3.766;2022-07-05T13:18:52;12.90;;;3.00;;
63280;SDS011;49406;51.044;3.766;2022-07-05T13:21:27;13.60;;;2.70;;
63280;SDS011;49406;51.044;3.766;2022-07-05T13:24:01;10.30;;;2.80;;
63280;SDS011;49406;51.044;3.766;2022-07-05T13:26:35;11.70;;;2.70;;
63280;SDS011;49406;51.044;3.766;2022-07-05T13:29:10;10.40;;;2.90;;
63280;SDS011;49406;51.044;3.766;2022-07-05T13:31:44;12.80;;;2.60;;
63280;SDS011;49406;51.044;3.766;2022-07-05T13:34:19;8.10;;;2.80;;
63280;SDS011;49406;51.044;3.766;2022-07-05T13:36:55;8.90;;;2.50;;
63280;SDS011;49406;51.044;3.766;2022-07-05T13:39:30;9.40;;;2.30;;
63280;SDS011;49406;51.044;3.766;2022-07-05T13:42:05;11.60;;;3.10;;
63280;SDS011;49406;51.044;3.766;2022-07-05T13:44:39;11.20;;;2.90;;
63280;SDS011;49406;51.044;3.766;2022-07-05T13:47:14;10.40;;;2.30;;
63280;SDS011;49406;51.044;3.766;2022-07-05T13:49:48;8.20;;;2.50;;
63280;SDS011;49406;51.044;3.766;2022-07-05T13:52:43;11.00;;;2.20;;
63280;SDS011;49406;51.044;3.766;2022-07-05T13:55:18;10.50;;;2.20;;
63280;SDS011;49406;51.044;3.766;2022-07-05T13:57:52;9.30;;;1.90;;
63280;SDS011;49406;51.044;3.766;2022-07-05T14:00:28;22.30;;;2.80;;
63280;SDS011;49406;51.044;3.766;2022-07-05T14:03:02;9.60;;;2.20;;
63280;SDS011;49406;51.044;3.766;2022-07-05T14:05:37;9.70;;;2.00;;
63280;SDS011;49406;51.044;3.766;2022-07-05T14:08:11;7.80;;;2.00;;
63280;SDS011;49406;51.044;3.766;2022-07-05T14:10:46;7.10;;;1.90;;
63280;SDS011;49406;51.044;3.766;2022-07-05T14:13:23;6.70;;;1.90;;
63280;SDS011;49406;51.044;3.766;2022-07-05T14:15:59;6.90;;;1.90;;
63280;SDS011;49406;51.044;3.766;2022-07-05T14:18:33;6.40;;;1.80;;
63280;SDS011;49406;51.044;3.766;2022-07-05T14:21:08;6.60;;;1.70;;
63280;SDS011;49406;51.044;3.766;2022-07-05T14:23:46;9.70;;;1.90;;
63280;SDS011;49406;51.044;3.766;2022-07-05T14:26:20;9.30;;;1.90;;
63280;SDS011;49406;51.044;3.766;2022-07-05T14:28:55;10.30;;;2.10;;
63280;SDS011;49406;51.044;3.766;2022-07-05T14:31:29;12.90;;;1.80;;
63280;SDS011;49406;51.044;3.766;2022-07-05T14:34:04;8.40;;;1.70;;
63280;SDS011;49406;51.044;3.766;2022-07-05T14:36:38;9.70;;;2.40;;
63280;SDS011;49406;51.044;3.766;2022-07-05T14:39:12;7.30;;;1.80;;
63280;SDS011;49406;51.044;3.766;2022-07-05T14:41:47;6.80;;;1.80;;
63280;SDS011;49406;51.044;3.766;2022-07-05T14:44:21;7.20;;;1.90;;
63280;SDS011;49406;51.044;3.766;2022-07-05T14:46:55;6.80;;;1.70;;
63280;SDS011;49406;51.044;3.766;2022-07-05T14:49:30;7.80;;;1.60;;
63280;SDS011;49406;51.044;3.766;2022-07-05T14:52:05;7.10;;;1.70;;
63280;SDS011;49406;51.044;3.766;2022-07-05T14:54:40;8.80;;;1.70;;
63280;SDS011;49406;51.044;3.766;2022-07-05T14:57:14;5.50;;;1.60;;
63280;SDS011;49406;51.044;3.766;2022-07-05T14:59:48;8.50;;;2.00;;
63280;SDS011;49406;51.044;3.766;2022-07-05T15:02:23;4.50;;;1.50;;
63280;SDS011;49406;51.044;3.766;2022-07-05T15:04:57;6.60;;;1.60;;
63280;SDS011;49406;51.044;3.766;2022-07-05T15:07:31;6.70;;;1.60;;
63280;SDS011;49406;51.044;3.766;2022-07-05T15:10:07;7.00;;;1.50;;
63280;SDS011;49406;51.044;3.766;2022-07-05T15:12:42;6.50;;;1.70;;
63280;SDS011;49406;51.044;3.766;2022-07-05T15:15:16;7.00;;;1.70;;
63280;SDS011;49406;51.044;3.766;2022-07-05T15:17:50;8.10;;;1.90;;
63280;SDS011;49406;51.044;3.766;2022-07-05T15:20:25;6.90;;;1.70;;
63280;SDS011;49406;51.044;3.766;2022-07-05T15:22:59;8.40;;;1.50;;
63280;SDS011;49406;51.044;3.766;2022-07-05T15:25:34;6.40;;;1.70;;
63280;SDS011;49406;51.044;3.766;2022-07-05T15:28:08;8.00;;;1.60;;
63280;SDS011;49406;51.044;3.766;2022-07-05T15:30:43;15.30;;;2.60;;
63280;SDS011;49406;51.044;3.766;2022-07-05T15:33:17;6.70;;;1.90;;
63280;SDS011;49406;51.044;3.766;2022-07-05T15:35:54;7.10;;;1.70;;